Time;durP1;ratioP1;P1;durP2;ratioP2;P2;SDS_P1;SDS_P2;PMS_P1;PMS_P2;Temp;Humidity;BMP_temperature;BMP_pressure;BME280_temperature;BME280_humidity;BME280_pressure;Samples;Min_cycle;Max_cycle;Signal;HPM_P1;HPM_P2
2023/12/27 00:00:52;;;;;;;15.60;6.67;;;6.50;99.90;;;;;;6283685;22;20184;-84
2023/12/27 00:03:17;;;;;;;14.60;6.83;;;6.50;99.90;;;;;;6281622;22;20540;-83
2023/12/27 00:05:43;;;;;;;19.13;8.87;;;6.50;99.90;;;;;;6283165;22;20156;-85
2023/12/27 00:08:08;;;;;;;16.73;8.10;;;6.40;99.90;;;;;;6283192;22;20180;-84
2023/12/27 00:10:34;;;;;;;18.47;8.70;;;6.30;99.90;;;;;;6282420;22;20279;-83
2023/12/27 00:12:59;;;;;;;15.53;8.20;;;6.30;99.90;;;;;;6283415;22;20156;-84
2023/12/27 00:15:25;;;;;;;15.40;7.90;;;6.30;99.90;;;;;;6280497;22;20168;-84
2023/12/27 00:17:50;;;;;;;22.50;8.17;;;6.30;99.90;;;;;;6278622;22;20157;-82
2023/12/27 00:20:16;;;;;;;19.00;8.17;;;6.30;99.90;;;;;;6250346;22;20226;-83
2023/12/27 00:22:41;;;;;;;22.13;8.83;;;6.20;1.00;;;;;;6250258;22;20160;-83
2023/12/27 00:25:07;;;;;;;17.87;8.43;;;6.20;1.00;;;;;;6274367;22;20152;-81
2023/12/27 00:27:32;;;;;;;36.97;8.87;;;6.10;1.00;;;;;;6274702;22;20156;-83
2023/12/27 00:29:58;;;;;;;16.83;8.80;;;6.10;1.00;;;;;;6247812;22;20164;-82
2023/12/27 00:32:23;;;;;;;14.53;8.23;;;6.10;1.00;;;;;;6274860;22;20247;-83
2023/12/27 00:34:49;;;;;;;18.93;9.90;;;6.10;1.00;;;;;;6274728;22;20259;-82
2023/12/27 00:37:15;;;;;;;16.03;8.90;;;6.10;1.00;;;;;;6248167;22;20157;-83
2023/12/27 00:39:41;;;;;;;17.50;8.27;;;6.10;1.00;;;;;;6275442;22;20184;-82
2023/12/27 00:42:07;;;;;;;25.23;8.88;;;6.10;1.00;;;;;;6246554;22;20181;-83
2023/12/27 00:44:32;;;;;;;20.67;7.43;;;6.00;1.00;;;;;;6274613;22;20295;-82
2023/12/27 00:46:58;;;;;;;14.90;6.40;;;6.00;1.00;;;;;;6275468;22;20159;-83
2023/12/27 00:49:24;;;;;;;16.17;6.20;;;6.00;1.00;;;;;;6275734;22;20157;-83
2023/12/27 00:51:49;;;;;;;12.73;6.03;;;6.00;1.00;;;;;;6275906;22;20172;-82
2023/12/27 00:54:15;;;;;;;27.90;6.80;;;6.00;1.00;;;;;;6275181;22;20222;-84
2023/12/27 00:56:40;;;;;;;18.73;7.13;;;6.00;1.00;;;;;;6275497;22;20206;-82
2023/12/27 00:59:06;;;;;;;13.97;7.50;;;6.00;1.00;;;;;;6275426;22;20145;-83
2023/12/27 01:01:32;;;;;;;16.10;7.70;;;5.90;1.00;;;;;;6275603;22;20193;-82
2023/12/27 01:03:58;;;;;;;19.40;7.70;;;5.90;1.00;;;;;;6250960;22;20163;-83
2023/12/27 01:06:23;;;;;;;16.97;7.27;;;5.80;1.00;;;;;;6257794;22;20172;-84
2023/12/27 01:08:49;;;;;;;16.60;7.50;;;5.90;1.00;;;;;;6284149;22;20232;-84
2023/12/27 01:11:14;;;;;;;21.43;7.77;;;5.90;1.00;;;;;;6283414;22;20165;-84
2023/12/27 01:13:40;;;;;;;29.47;8.93;;;5.90;1.00;;;;;;6283186;22;20149;-84
2023/12/27 01:16:06;;;;;;;13.17;7.03;;;6.00;1.00;;;;;;6282374;22;20205;-83
2023/12/27 01:18:31;;;;;;;23.27;7.23;;;6.00;1.00;;;;;;6280369;22;20180;-84
2023/12/27 01:20:57;;;;;;;19.27;7.43;;;6.10;1.00;;;;;;6256383;22;20169;-84
2023/12/27 01:23:22;;;;;;;21.93;6.83;;;6.10;1.00;;;;;;6256668;22;20175;-84
2023/12/27 01:25:48;;;;;;;19.33;6.80;;;6.20;1.00;;;;;;6279825;22;20184;-83
2023/12/27 01:28:14;;;;;;;14.63;6.00;;;6.20;1.00;;;;;;6281906;22;20183;-83
2023/12/27 01:30:39;;;;;;;18.15;6.90;;;6.10;1.00;;;;;;6283780;22;20175;-84
2023/12/27 01:33:05;;;;;;;11.53;5.90;;;6.10;1.00;;;;;;6284103;22;20156;-85
2023/12/27 01:35:30;;;;;;;16.80;5.97;;;6.10;1.00;;;;;;6283195;22;20177;-84
2023/12/27 01:37:56;;;;;;;15.17;6.13;;;6.00;1.00;;;;;;6284041;22;20151;-83
2023/12/27 01:40:21;;;;;;;15.70;6.47;;;5.90;1.00;;;;;;6282106;22;20181;-84
2023/12/27 01:42:47;;;;;;;14.10;5.77;;;5.80;1.00;;;;;;6283704;22;20149;-83
2023/12/27 01:45:13;;;;;;;13.70;6.70;;;5.80;1.00;;;;;;6276442;22;20159;-82
2023/12/27 01:47:38;;;;;;;15.27;5.13;;;5.80;1.00;;;;;;6283492;22;20190;-84
2023/12/27 01:50:08;;;;;;;16.93;5.33;;;5.80;1.00;;;;;;6275282;22;20211;-83
2023/12/27 01:52:33;;;;;;;12.70;7.18;;;5.80;1.00;;;;;;6275002;22;20223;-83
2023/12/27 01:54:59;;;;;;;15.03;5.80;;;5.80;1.00;;;;;;6274755;22;20208;-83
2023/12/27 01:57:24;;;;;;;10.20;5.63;;;5.80;1.00;;;;;;6273205;22;20153;-83
2023/12/27 01:59:50;;;;;;;14.53;4.77;;;5.80;1.00;;;;;;6273502;22;20223;-82
2023/12/27 02:02:15;;;;;;;18.73;5.57;;;5.80;1.00;;;;;;6275104;22;20145;-82
2023/12/27 02:04:41;;;;;;;10.90;5.23;;;5.80;1.00;;;;;;6274894;22;20157;-84
2023/12/27 02:07:07;;;;;;;13.30;6.10;;;5.70;1.00;;;;;;6274791;22;20157;-84
2023/12/27 02:09:33;;;;;;;9.40;5.30;;;5.70;1.00;;;;;;6275167;22;20495;-83
2023/12/27 02:11:59;;;;;;;14.30;5.47;;;5.60;1.00;;;;;;6275076;22;20188;-83
2023/12/27 02:14:24;;;;;;;15.90;5.90;;;5.60;1.00;;;;;;6276391;22;20227;-83
2023/12/27 02:16:50;;;;;;;17.10;5.17;;;5.50;1.00;;;;;;6276152;22;20157;-82
2023/12/27 02:19:27;;;;;;;9.20;5.80;;;5.50;1.00;;;;;;6249891;22;20164;-83
2023/12/27 02:21:53;;;;;;;20.90;7.35;;;5.50;1.00;;;;;;6277092;22;20881;-81
2023/12/27 02:24:21;;;;;;;11.38;5.95;;;5.50;1.00;;;;;;6276640;22;20153;-83
2023/12/27 02:26:47;;;;;;;11.63;5.78;;;5.60;1.00;;;;;;6276827;22;20175;-83
2023/12/27 02:29:13;;;;;;;15.20;6.93;;;5.50;1.00;;;;;;6277021;22;20164;-83
2023/12/27 02:31:39;;;;;;;17.90;5.40;;;5.50;1.00;;;;;;6250009;22;20183;-83
2023/12/27 02:34:04;;;;;;;14.90;6.03;;;5.50;1.00;;;;;;6275498;22;20149;-83
2023/12/27 02:36:30;;;;;;;16.50;5.30;;;5.50;1.00;;;;;;6256466;22;20179;-83
2023/12/27 02:38:55;;;;;;;21.13;7.37;;;5.40;1.00;;;;;;6282790;22;20145;-84
2023/12/27 02:41:22;;;;;;;16.83;6.10;;;5.40;1.00;;;;;;6283730;22;20192;-85
2023/12/27 02:43:47;;;;;;;15.05;5.18;;;5.40;1.00;;;;;;6283856;22;20152;-84
2023/12/27 02:46:13;;;;;;;19.07;5.80;;;5.40;1.00;;;;;;6257508;22;20157;-84
2023/12/27 02:48:41;;;;;;;13.47;5.00;;;5.40;1.00;;;;;;6256433;22;20149;-83
2023/12/27 02:51:07;;;;;;;14.05;5.90;;;5.30;1.00;;;;;;6282831;22;20164;-84
2023/12/27 02:53:32;;;;;;;25.83;6.10;;;5.30;1.00;;;;;;6281136;22;20190;-84
2023/12/27 02:55:58;;;;;;;16.97;6.10;;;5.30;1.00;;;;;;6282557;22;20172;-84
2023/12/27 02:58:23;;;;;;;28.73;7.23;;;5.30;1.00;;;;;;6282002;22;20153;-85
2023/12/27 03:00:49;;;;;;;20.00;5.60;;;5.30;1.00;;;;;;6254816;22;20212;-84
2023/12/27 03:03:16;;;;;;;16.10;5.28;;;5.20;1.00;;;;;;6255876;22;20196;-83
2023/12/27 03:05:41;;;;;;;12.60;5.57;;;5.20;1.00;;;;;;6285729;22;20608;-85
2023/12/27 03:08:07;;;;;;;17.63;6.20;;;5.10;1.00;;;;;;6285209;22;20148;-83
2023/12/27 03:10:33;;;;;;;13.73;7.00;;;5.10;1.00;;;;;;6280951;22;20177;-81
2023/12/27 03:12:58;;;;;;;13.70;5.40;;;5.10;1.00;;;;;;6282653;22;20597;-83
2023/12/27 03:15:24;;;;;;;12.13;5.20;;;5.00;1.00;;;;;;6284832;22;20466;-84
2023/12/27 03:17:49;;;;;;;14.27;5.70;;;5.00;1.00;;;;;;6282963;22;20152;-84
2023/12/27 03:20:15;;;;;;;12.03;6.40;;;5.10;1.00;;;;;;6283003;22;20623;-84
2023/12/27 03:22:40;;;;;;;12.93;5.50;;;5.00;1.00;;;;;;6276853;22;20176;-81
2023/12/27 03:25:06;;;;;;;13.27;5.73;;;5.00;1.00;;;;;;6276698;22;20164;-83
2023/12/27 03:27:31;;;;;;;15.73;6.13;;;5.00;1.00;;;;;;6277471;22;20202;-82
2023/12/27 03:29:57;;;;;;;13.57;4.77;;;5.00;1.00;;;;;;6278246;22;20149;-83
2023/12/27 03:32:24;;;;;;;15.00;4.50;;;5.10;1.00;;;;;;6250534;22;20555;-82
2023/12/27 03:34:50;;;;;;;16.52;4.20;;;5.10;1.00;;;;;;6277190;22;20180;-84
2023/12/27 03:37:15;;;;;;;15.83;5.87;;;5.20;1.00;;;;;;6277896;22;20592;-83
2023/12/27 03:39:44;;;;;;;8.70;4.07;;;5.20;1.00;;;;;;6276811;22;20383;-83
2023/12/27 03:42:12;;;;;;;10.32;4.05;;;5.20;1.00;;;;;;6276900;22;20578;-83
2023/12/27 03:44:38;;;;;;;12.80;5.40;;;5.30;1.00;;;;;;6276186;22;20628;-83
2023/12/27 03:47:03;;;;;;;12.10;4.40;;;5.30;1.00;;;;;;6278120;22;20153;-82
2023/12/27 03:49:29;;;;;;;10.30;4.13;;;5.30;1.00;;;;;;6278033;22;20145;-82
2023/12/27 03:51:54;;;;;;;9.27;4.13;;;5.30;1.00;;;;;;6276744;22;20235;-83
2023/12/27 03:54:21;;;;;;;8.50;4.10;;;5.30;1.00;;;;;;6277068;22;20222;-82
2023/12/27 03:56:46;;;;;;;16.42;5.03;;;5.40;1.00;;;;;;6277529;22;20168;-84
2023/12/27 03:59:12;;;;;;;14.43;4.10;;;5.50;1.00;;;;;;6277485;22;20601;-83
2023/12/27 04:01:37;;;;;;;17.20;5.10;;;5.40;1.00;;;;;;6277225;22;20180;-82
2023/12/27 04:04:03;;;;;;;16.73;5.40;;;5.40;1.00;;;;;;6250249;22;20184;-82
2023/12/27 04:06:28;;;;;;;15.63;4.33;;;5.40;1.00;;;;;;6278178;22;20157;-82
2023/12/27 04:08:54;;;;;;;13.43;6.07;;;5.50;1.00;;;;;;6288264;22;20156;-84
2023/12/27 04:11:20;;;;;;;15.03;4.40;;;5.50;1.00;;;;;;6288436;22;20172;-83
2023/12/27 04:13:45;;;;;;;15.90;5.00;;;5.60;1.00;;;;;;6288136;22;20145;-84
2023/12/27 04:16:11;;;;;;;11.77;5.30;;;5.60;1.00;;;;;;6287366;22;20192;-84
2023/12/27 04:18:36;;;;;;;13.73;4.70;;;5.60;1.00;;;;;;6287964;22;20170;-84
2023/12/27 04:21:02;;;;;;;17.50;7.57;;;5.60;1.00;;;;;;6283226;22;20718;-83
2023/12/27 04:23:27;;;;;;;14.20;5.03;;;5.60;1.00;;;;;;6286008;22;20160;-84
2023/12/27 04:25:53;;;;;;;9.63;4.53;;;5.70;1.00;;;;;;6284009;22;20637;-84
2023/12/27 04:28:19;;;;;;;9.33;4.97;;;5.60;1.00;;;;;;6287818;22;20153;-84
2023/12/27 04:30:44;;;;;;;11.87;4.43;;;5.70;1.00;;;;;;6288938;22;20224;-85
2023/12/27 04:33:10;;;;;;;17.87;5.03;;;5.70;1.00;;;;;;6287477;22;20149;-84
2023/12/27 04:35:35;;;;;;;17.80;6.13;;;5.70;1.00;;;;;;6287926;22;20203;-83
2023/12/27 04:38:01;;;;;;;18.47;5.10;;;5.70;1.00;;;;;;6284847;22;20208;-83
2023/12/27 04:40:27;;;;;;;5.70;4.10;;;5.80;1.00;;;;;;6284705;22;20191;-85
2023/12/27 04:42:53;;;;;;;15.43;4.53;;;5.90;1.00;;;;;;6287703;22;20155;-83
2023/12/27 04:45:18;;;;;;;12.98;5.45;;;6.00;1.00;;;;;;6287159;22;20371;-81
2023/12/27 04:47:44;;;;;;;10.00;4.43;;;6.00;1.00;;;;;;6286914;22;20160;-83
2023/12/27 04:50:09;;;;;;;8.87;3.87;;;6.10;1.00;;;;;;6288237;22;20180;-83
2023/12/27 04:52:35;;;;;;;10.57;4.47;;;6.10;1.00;;;;;;6284002;22;20498;-85
2023/12/27 04:55:00;;;;;;;14.30;5.03;;;6.10;1.00;;;;;;6275989;22;20223;-82
2023/12/27 04:57:26;;;;;;;15.57;6.33;;;6.10;1.00;;;;;;6277373;22;20612;-83
2023/12/27 04:59:51;;;;;;;30.20;11.90;;;6.10;1.00;;;;;;6276339;22;20169;-81
2023/12/27 05:02:17;;;;;;;35.97;12.77;;;6.20;1.00;;;;;;6274887;22;20148;-82
2023/12/27 05:04:43;;;;;;;19.30;5.30;;;6.30;1.00;;;;;;6276079;22;20157;-82
2023/12/27 05:07:08;;;;;;;22.50;8.37;;;6.30;1.00;;;;;;6276138;22;20153;-83
2023/12/27 05:09:34;;;;;;;12.37;4.00;;;6.30;1.00;;;;;;6276188;22;20153;-83
2023/12/27 05:12:00;;;;;;;18.90;7.37;;;6.30;1.00;;;;;;6276968;22;20406;-82
2023/12/27 05:14:25;;;;;;;13.73;6.37;;;6.30;1.00;;;;;;6275157;22;20514;-82
2023/12/27 05:16:54;;;;;;;14.33;4.53;;;6.30;1.00;;;;;;6276674;22;20152;-83
2023/12/27 05:19:20;;;;;;;8.75;5.18;;;6.30;1.00;;;;;;6275073;22;20634;-82
2023/12/27 05:21:46;;;;;;;11.93;4.33;;;6.20;1.00;;;;;;6277502;22;20164;-82
2023/12/27 05:24:11;;;;;;;13.40;5.37;;;6.20;1.00;;;;;;6277006;22;20380;-82
2023/12/27 05:26:37;;;;;;;12.17;5.83;;;6.20;1.00;;;;;;6276250;22;20179;-84
2023/12/27 05:29:03;;;;;;;9.87;5.80;;;6.20;1.00;;;;;;6249327;22;20164;-83
2023/12/27 05:31:29;;;;;;;16.30;5.55;;;6.30;1.00;;;;;;6249025;22;20204;-83
2023/12/27 05:33:55;;;;;;;15.32;6.78;;;6.30;1.00;;;;;;6248870;22;20168;-82
2023/12/27 05:36:21;;;;;;;35.73;16.40;;;6.20;1.00;;;;;;6275330;22;20608;-82
2023/12/27 05:38:46;;;;;;;36.53;16.90;;;6.30;1.00;;;;;;6277225;22;20171;-84
2023/12/27 05:41:12;;;;;;;13.97;6.07;;;6.40;1.00;;;;;;6287847;22;20406;-84
2023/12/27 05:43:38;;;;;;;21.70;8.63;;;6.50;1.00;;;;;;6285915;22;20149;-83
2023/12/27 05:46:03;;;;;;;14.10;5.27;;;6.60;1.00;;;;;;6286077;22;20153;-81
2023/12/27 05:48:29;;;;;;;10.10;5.40;;;6.60;1.00;;;;;;6285961;22;20159;-84
2023/12/27 05:50:54;;;;;;;12.53;5.90;;;6.60;1.00;;;;;;6287619;22;20198;-84
2023/12/27 05:53:20;;;;;;;8.67;5.70;;;6.70;1.00;;;;;;6288683;22;20149;-84
2023/12/27 05:55:46;;;;;;;16.13;7.50;;;6.70;1.00;;;;;;6283146;22;20254;-84
2023/12/27 05:58:11;;;;;;;12.20;7.20;;;6.80;1.00;;;;;;6289118;22;20150;-84
2023/12/27 06:00:37;;;;;;;12.93;6.60;;;6.80;1.00;;;;;;6289808;22;20191;-84
2023/12/27 06:03:03;;;;;;;12.33;6.57;;;6.70;1.00;;;;;;6290216;22;20153;-84
2023/12/27 06:05:28;;;;;;;9.00;5.73;;;6.70;1.00;;;;;;6291201;22;20148;-84
2023/12/27 06:07:54;;;;;;;13.70;7.20;;;6.70;1.00;;;;;;6292182;22;20164;-84
2023/12/27 06:10:20;;;;;;;18.43;9.27;;;6.60;3.40;;;;;;6291652;22;20207;-84
2023/12/27 06:12:45;;;;;;;10.73;7.00;;;6.70;13.90;;;;;;6282129;22;20153;-83
2023/12/27 06:15:11;;;;;;;15.37;7.30;;;6.70;20.20;;;;;;6287834;22;20188;-83
2023/12/27 06:17:37;;;;;;;14.35;7.72;;;6.70;21.10;;;;;;6289811;22;20707;-84
2023/12/27 06:20:04;;;;;;;13.20;8.30;;;6.70;23.30;;;;;;6262571;22;20179;-83
2023/12/27 06:22:29;;;;;;;10.85;7.95;;;6.70;25.40;;;;;;6262536;22;20156;-83
2023/12/27 06:24:55;;;;;;;11.27;8.70;;;6.70;27.70;;;;;;6281974;22;20640;-83
2023/12/27 06:27:21;;;;;;;16.53;9.57;;;6.60;25.20;;;;;;6276636;22;20173;-82
2023/12/27 06:29:46;;;;;;;22.33;9.00;;;6.60;26.60;;;;;;6275015;22;20383;-83
2023/12/27 06:32:12;;;;;;;17.30;8.37;;;6.60;32.00;;;;;;6276043;22;20168;-80
2023/12/27 06:34:38;;;;;;;31.30;17.00;;;6.70;29.90;;;;;;6275827;22;20172;-84
2023/12/27 06:37:03;;;;;;;16.07;8.00;;;6.80;34.20;;;;;;6277500;22;20156;-82
2023/12/27 06:39:29;;;;;;;11.77;7.70;;;6.80;25.90;;;;;;6277428;22;20589;-84
2023/12/27 06:41:54;;;;;;;14.17;7.37;;;6.80;22.70;;;;;;6276711;22;20224;-82
2023/12/27 06:44:20;;;;;;;13.47;7.77;;;6.90;26.80;;;;;;6276944;22;20169;-82
2023/12/27 06:46:45;;;;;;;15.73;7.77;;;6.90;20.80;;;;;;6275367;22;20149;-83
2023/12/27 06:49:11;;;;;;;12.60;7.90;;;6.90;17.80;;;;;;6276393;22;20156;-82
2023/12/27 06:51:37;;;;;;;16.00;8.07;;;6.90;20.30;;;;;;6276158;22;20624;-82
2023/12/27 06:54:02;;;;;;;16.90;8.90;;;6.90;18.00;;;;;;6275843;22;20149;-83
2023/12/27 06:56:27;;;;;;;16.73;9.13;;;6.90;17.80;;;;;;6276643;22;20228;-82
2023/12/27 06:58:53;;;;;;;12.87;7.00;;;6.90;17.70;;;;;;6278064;22;20586;-82
2023/12/27 07:01:19;;;;;;;11.20;6.53;;;6.90;22.60;;;;;;6278654;22;20180;-82
2023/12/27 07:03:44;;;;;;;13.57;7.50;;;7.00;22.40;;;;;;6251752;22;20210;-83
2023/12/27 07:06:10;;;;;;;16.37;8.40;;;7.00;23.50;;;;;;6278713;22;20153;-83
2023/12/27 07:08:35;;;;;;;8.83;6.53;;;7.00;23.30;;;;;;6277322;22;20164;-82
2023/12/27 07:11:01;;;;;;;13.33;7.70;;;7.00;25.30;;;;;;6285934;22;20191;-83
2023/12/27 07:13:26;;;;;;;11.50;7.30;;;7.00;26.50;;;;;;6292815;22;20149;-82
2023/12/27 07:15:53;;;;;;;13.47;7.63;;;7.00;27.10;;;;;;6287926;22;20195;-83
2023/12/27 07:18:18;;;;;;;14.23;8.57;;;7.00;25.40;;;;;;6288418;22;20446;-83
2023/12/27 07:20:44;;;;;;;18.37;9.87;;;7.00;24.30;;;;;;6285321;22;20186;-82
2023/12/27 07:23:10;;;;;;;12.27;8.27;;;7.00;25.20;;;;;;6284629;22;20153;-83
2023/12/27 07:25:35;;;;;;;21.20;8.47;;;7.00;26.90;;;;;;6257127;22;20152;-83
2023/12/27 07:28:01;;;;;;;14.57;7.53;;;7.10;29.10;;;;;;6258919;22;20470;-84
2023/12/27 07:30:27;;;;;;;18.97;7.77;;;7.10;28.50;;;;;;6287093;22;20168;-83
2023/12/27 07:32:52;;;;;;;13.47;7.90;;;7.20;29.30;;;;;;6286461;22;20190;-83
2023/12/27 07:35:18;;;;;;;12.20;7.40;;;7.20;26.00;;;;;;6285951;22;20176;-86
2023/12/27 07:37:46;;;;;;;14.53;6.60;;;7.30;17.40;;;;;;6260146;22;20499;-85
2023/12/27 07:40:13;;;;;;;12.37;6.60;;;7.40;1.00;;;;;;6285248;22;20530;-83
2023/12/27 07:42:39;;;;;;;9.90;6.20;;;7.40;1.00;;;;;;6257843;22;20393;-83
2023/12/27 07:45:05;;;;;;;12.50;6.73;;;7.50;1.00;;;;;;6284932;22;20407;-85
2023/12/27 07:47:30;;;;;;;7.27;5.20;;;7.50;1.00;;;;;;6257509;22;20161;-83
2023/12/27 07:49:57;;;;;;;9.60;6.07;;;7.60;1.00;;;;;;6283293;22;20850;-83
2023/12/27 07:52:22;;;;;;;7.47;5.70;;;7.60;1.00;;;;;;6288287;22;20382;-84
2023/12/27 07:54:48;;;;;;;8.23;5.60;;;7.70;1.00;;;;;;6278389;22;20419;-84
2023/12/27 07:57:13;;;;;;;12.90;6.43;;;7.70;1.00;;;;;;6277985;22;20153;-83
2023/12/27 07:59:39;;;;;;;9.67;6.00;;;7.70;1.00;;;;;;6278904;22;20156;-83
2023/12/27 08:02:04;;;;;;;9.80;6.40;;;7.70;1.00;;;;;;6277398;22;20180;-82
2023/12/27 08:04:30;;;;;;;10.73;6.67;;;7.70;1.00;;;;;;6277409;22;20157;-83
2023/12/27 08:06:56;;;;;;;8.30;6.30;;;7.70;1.00;;;;;;6274834;22;20157;-83
2023/12/27 08:09:22;;;;;;;9.90;5.40;;;7.70;1.00;;;;;;6276518;22;20150;-82
2023/12/27 08:11:48;;;;;;;8.23;5.13;;;7.80;1.00;;;;;;6277863;22;20169;-82
2023/12/27 08:14:13;;;;;;;8.93;5.03;;;7.80;1.00;;;;;;6277784;22;20438;-81
2023/12/27 08:16:38;;;;;;;8.40;4.87;;;7.80;1.00;;;;;;6277058;22;20141;-81
2023/12/27 08:19:04;;;;;;;8.53;5.07;;;7.90;1.00;;;;;;6280420;22;20215;-82
2023/12/27 08:21:29;;;;;;;7.30;4.60;;;7.90;1.00;;;;;;6250227;22;20176;-82
2023/12/27 08:23:55;;;;;;;8.13;5.63;;;8.00;1.00;;;;;;6277188;22;20175;-83
2023/12/27 08:26:20;;;;;;;10.43;4.80;;;8.00;1.00;;;;;;6277269;22;20149;-83
2023/12/27 08:28:46;;;;;;;10.00;5.50;;;8.10;1.00;;;;;;6278131;22;20157;-82
2023/12/27 08:31:13;;;;;;;10.30;6.07;;;8.20;1.00;;;;;;6277987;22;20252;-82
2023/12/27 08:33:39;;;;;;;8.30;4.23;;;8.30;1.00;;;;;;6277435;22;20402;-84
2023/12/27 08:36:05;;;;;;;8.47;4.93;;;8.40;1.00;;;;;;6280429;22;20415;-82
2023/12/27 08:38:32;;;;;;;7.07;5.23;;;8.40;1.00;;;;;;6278969;22;20604;-85
2023/12/27 08:40:58;;;;;;;8.37;5.27;;;8.40;1.00;;;;;;6279065;22;20388;-83
2023/12/27 08:43:29;;;;;;;5.43;4.90;;;8.50;1.00;;;;;;6258647;22;20725;-84
2023/12/27 08:45:54;;;;;;;7.90;4.50;;;8.60;1.00;;;;;;6288781;22;20144;-84
2023/12/27 08:48:20;;;;;;;5.70;4.33;;;8.70;1.00;;;;;;6288294;22;20399;-84
2023/12/27 08:50:46;;;;;;;9.30;4.43;;;8.70;1.00;;;;;;6288297;22;20173;-85
2023/12/27 08:53:12;;;;;;;8.40;4.50;;;8.80;1.00;;;;;;6258269;22;20164;-85
2023/12/27 08:55:37;;;;;;;7.57;5.00;;;8.80;1.00;;;;;;6288323;22;20419;-84
2023/12/27 08:58:03;;;;;;;9.27;4.43;;;8.80;1.00;;;;;;6261276;22;20161;-83
2023/12/27 09:00:28;;;;;;;5.67;4.20;;;8.80;1.00;;;;;;6287428;22;20215;-82
2023/12/27 09:02:54;;;;;;;10.83;5.70;;;8.80;1.00;;;;;;6284361;22;20615;-85
2023/12/27 09:05:20;;;;;;;7.90;4.30;;;8.90;1.00;;;;;;6285071;22;20152;-84
2023/12/27 09:07:46;;;;;;;6.67;3.70;;;8.90;1.00;;;;;;6286649;22;20379;-83
2023/12/27 09:10:11;;;;;;;7.30;3.33;;;8.90;1.00;;;;;;6284525;22;20172;-84
2023/12/27 09:12:38;;;;;;;5.53;3.77;;;8.90;1.00;;;;;;6285098;22;20154;-81
2023/12/27 09:15:06;;;;;;;4.93;3.33;;;9.00;1.00;;;;;;6285847;22;20419;-84
2023/12/27 09:17:31;;;;;;;6.03;3.63;;;9.10;1.00;;;;;;6285581;22;20371;-85
2023/12/27 09:19:57;;;;;;;4.63;3.10;;;9.10;1.00;;;;;;6286662;22;20376;-83
2023/12/27 09:22:22;;;;;;;7.03;3.10;;;9.10;1.00;;;;;;6286804;22;20160;-84
2023/12/27 09:24:48;;;;;;;5.20;3.03;;;9.20;1.00;;;;;;6285930;22;20149;-84
2023/12/27 09:27:17;;;;;;;4.40;3.03;;;9.30;1.00;;;;;;6282687;22;20152;-82
2023/12/27 09:29:43;;;;;;;6.10;4.00;;;9.30;1.00;;;;;;6278751;22;20415;-83
2023/12/27 09:32:09;;;;;;;5.43;3.57;;;9.40;1.00;;;;;;6275250;22;20787;-83
2023/12/27 09:34:34;;;;;;;6.40;3.93;;;9.40;1.00;;;;;;6277134;22;20419;-83
2023/12/27 09:37:00;;;;;;;12.33;4.90;;;9.40;1.00;;;;;;6250509;22;20149;-85
2023/12/27 09:39:26;;;;;;;5.00;2.80;;;9.40;1.00;;;;;;6277205;22;20616;-83
2023/12/27 09:41:51;;;;;;;5.67;2.90;;;9.40;1.00;;;;;;6276631;22;20954;-82
2023/12/27 09:44:20;;;;;;;5.23;3.53;;;9.40;1.00;;;;;;6249576;22;20668;-82
2023/12/27 09:46:46;;;;;;;3.83;3.00;;;9.30;1.00;;;;;;6275998;22;20494;-83
2023/12/27 09:49:12;;;;;;;5.63;2.90;;;9.50;1.00;;;;;;6249472;22;20376;-82
2023/12/27 09:51:39;;;;;;;5.37;3.07;;;9.60;1.00;;;;;;6275305;22;20777;-81
2023/12/27 09:54:05;;;;;;;5.40;2.90;;;9.70;1.00;;;;;;6250560;22;20156;-83
2023/12/27 09:56:31;;;;;;;4.20;2.67;;;9.70;1.00;;;;;;6277316;22;20375;-82
2023/12/27 09:59:10;;;;;;;3.60;2.53;;;9.60;1.00;;;;;;6270918;22;20454;-83
2023/12/27 10:01:41;;;;;;;3.10;2.57;;;9.60;1.00;;;;;;6275949;22;20883;-82
2023/12/27 10:04:44;;;;;;;2.97;2.10;;;9.50;1.00;;;;;;6275312;22;20374;-82
2023/12/27 10:07:12;;;;;;;4.30;2.87;;;9.50;1.00;;;;;;6256171;22;20406;-82
2023/12/27 10:09:38;;;;;;;3.10;2.50;;;9.70;1.00;;;;;;6281587;22;20462;-81
2023/12/27 10:12:07;;;;;;;4.63;2.87;;;9.80;1.00;;;;;;6278924;22;20418;-82
2023/12/27 10:14:35;;;;;;;2.67;1.97;;;9.90;1.00;;;;;;6281733;22;20418;-79
2023/12/27 10:17:02;;;;;;;3.50;2.37;;;10.00;1.00;;;;;;6283755;22;20450;-84
2023/12/27 10:19:42;;;;;;;6.23;2.73;;;10.00;1.00;;;;;;6283058;22;20954;-82
2023/12/27 10:22:09;;;;;;;3.60;2.73;;;9.90;1.00;;;;;;6282921;22;20696;-84
2023/12/27 10:24:35;;;;;;;4.10;2.53;;;10.10;1.00;;;;;;6282027;22;20462;-83
2023/12/27 10:27:04;;;;;;;5.73;2.57;;;10.20;1.00;;;;;;6284119;22;20379;-82
2023/12/27 10:29:33;;;;;;;4.87;3.47;;;10.30;1.00;;;;;;6285770;22;20149;-83
2023/12/27 10:32:00;;;;;;;5.20;3.13;;;10.40;1.00;;;;;;6286512;22;20399;-83
2023/12/27 10:34:26;;;;;;;7.53;3.27;;;10.50;1.00;;;;;;6286698;22;20418;-82
2023/12/27 10:36:52;;;;;;;5.30;4.30;;;10.60;99.90;;;;;;6288044;22;20846;-84
2023/12/27 10:39:18;;;;;;;11.57;6.03;;;10.70;99.90;;;;;;6289547;22;20417;-84
2023/12/27 10:41:43;;;;;;;11.03;7.03;;;10.80;99.90;;;;;;6290564;22;20172;-83
2023/12/27 10:44:11;;;;;;;5.40;3.60;;;10.80;99.90;;;;;;6290007;22;20443;-84
2023/12/27 10:46:38;;;;;;;14.03;7.90;;;10.80;99.90;;;;;;6290073;22;20145;-83
2023/12/27 10:49:04;;;;;;;4.60;2.40;;;10.90;99.90;;;;;;6290278;22;20394;-83
2023/12/27 10:51:30;;;;;;;2.57;1.10;;;10.90;99.90;;;;;;6257718;22;20434;-84
2023/12/27 10:54:00;;;;;;;2.60;1.80;;;10.90;9.20;;;;;;6287542;22;20375;-83
2023/12/27 10:56:26;;;;;;;1.40;0.90;;;10.90;1.00;;;;;;6288606;22;20419;-82
2023/12/27 10:58:56;;;;;;;3.90;2.70;;;10.90;1.00;;;;;;6288086;22;20378;-83
2023/12/27 11:01:21;;;;;;;7.90;4.23;;;10.90;1.00;;;;;;6252144;22;20419;-81
2023/12/27 11:03:49;;;;;;;1.87;1.10;;;11.00;99.90;;;;;;6277873;22;20405;-81
2023/12/27 11:06:17;;;;;;;3.17;1.53;;;11.00;99.90;;;;;;6278182;22;20171;-80
2023/12/27 11:08:45;;;;;;;3.40;1.47;;;11.00;99.90;;;;;;6251854;22;20383;-81
2023/12/27 11:11:13;;;;;;;6.60;3.93;;;10.90;99.90;;;;;;6283910;22;20399;-85
2023/12/27 11:13:39;;;;;;;3.33;1.60;;;10.90;99.90;;;;;;6285475;22;20376;-84
2023/12/27 11:16:07;;;;;;;4.17;2.70;;;10.90;99.90;;;;;;6286524;22;20447;-83
2023/12/27 11:18:35;;;;;;;2.70;1.30;;;11.00;99.90;;;;;;6287299;22;20426;-84
2023/12/27 11:21:00;;;;;;;3.27;1.53;;;11.10;14.60;;;;;;6257913;22;20891;-83
2023/12/27 11:23:27;;;;;;;3.10;1.27;;;11.10;1.00;;;;;;6281630;22;20378;-82
2023/12/27 11:25:55;;;;;;;3.20;1.43;;;11.20;1.00;;;;;;6276948;22;20153;-83
2023/12/27 11:28:21;;;;;;;4.20;3.20;;;11.20;99.90;;;;;;6275626;22;20855;-83
2023/12/27 11:30:47;;;;;;;2.90;1.20;;;11.20;99.90;;;;;;6279542;22;20403;-82
2023/12/27 11:33:22;;;;;;;1.50;1.10;;;11.20;16.20;;;;;;6249633;22;20718;-82
2023/12/27 11:35:47;;;;;;;2.43;0.90;;;11.20;99.90;;;;;;6277222;22;20902;-82
2023/12/27 11:38:20;;;;;;;2.73;1.50;;;11.20;1.00;;;;;;6278074;22;20383;-84
2023/12/27 11:40:56;;;;;;;7.67;1.63;;;11.20;1.00;;;;;;6283245;22;20466;-83
2023/12/27 11:43:24;;;;;;;4.00;1.20;;;11.20;1.00;;;;;;6281904;22;20347;-84
2023/12/27 11:46:02;;;;;;;2.60;1.37;;;11.10;1.00;;;;;;6283579;22;20383;-83
2023/12/27 11:48:32;;;;;;;4.87;1.60;;;11.10;1.00;;;;;;6256563;22;20488;-84
2023/12/27 11:51:00;;;;;;;3.73;1.50;;;11.10;1.00;;;;;;6285536;22;20395;-83
2023/12/27 11:53:29;;;;;;;7.33;2.30;;;11.10;99.90;;;;;;6282872;22;20425;-82
2023/12/27 11:56:04;;;;;;;5.27;1.70;;;11.10;99.90;;;;;;6282125;22;20505;-82
2023/12/27 11:58:35;;;;;;;4.33;1.80;;;11.10;99.90;;;;;;6282080;22;20375;-84
2023/12/27 12:01:26;;;;;;;4.30;1.77;;;11.10;99.90;;;;;;6281889;22;20509;-83
2023/12/27 12:04:18;;;;;;;6.10;2.23;;;11.20;1.00;;;;;;6282956;22;20431;-82
2023/12/27 12:07:19;;;;;;;2.93;1.53;;;11.30;99.90;;;;;;6280375;22;20426;-84
2023/12/27 12:09:45;;;;;;;5.00;1.80;;;11.50;1.00;;;;;;6280752;22;20384;-83
2023/12/27 12:12:15;;;;;;;3.00;1.80;;;11.60;99.90;;;;;;6280915;22;20391;-84
2023/12/27 12:14:40;;;;;;;5.43;2.17;;;11.80;1.00;;;;;;6280653;22;20422;-83
2023/12/27 12:17:08;;;;;;;3.30;1.83;;;11.90;99.90;;;;;;6282523;22;20368;-83
2023/12/27 12:19:35;;;;;;;8.83;1.87;;;12.00;99.90;;;;;;6282306;22;20171;-83
2023/12/27 12:22:01;;;;;;;6.20;2.40;;;12.10;1.00;;;;;;6281842;22;20898;-83
2023/12/27 12:24:27;;;;;;;5.57;2.60;;;12.20;1.00;;;;;;6281393;22;20428;-83
2023/12/27 12:26:54;;;;;;;4.13;1.60;;;12.40;99.90;;;;;;6282804;22;20395;-83
2023/12/27 12:29:21;;;;;;;8.83;2.03;;;12.60;99.90;;;;;;6282583;22;20156;-83
2023/12/27 12:31:47;;;;;;;6.27;3.10;;;12.80;1.00;;;;;;6279750;22;20399;-83
2023/12/27 12:34:12;;;;;;;4.77;2.03;;;13.10;1.00;;;;;;6283409;22;20398;-82
2023/12/27 12:36:38;;;;;;;4.90;1.90;;;13.20;99.90;;;;;;6281910;22;20156;-82
2023/12/27 12:39:04;;;;;;;9.17;3.33;;;13.30;99.90;;;;;;6282354;22;20149;-83
2023/12/27 12:41:30;;;;;;;7.67;2.70;;;13.40;99.90;;;;;;6283354;22;20402;-83
2023/12/27 12:43:56;;;;;;;9.63;2.30;;;13.40;99.90;;;;;;6283026;22;20375;-84
2023/12/27 12:46:23;;;;;;;9.80;2.03;;;13.50;99.90;;;;;;6256879;22;20188;-83
2023/12/27 12:48:49;;;;;;;5.37;2.43;;;13.60;99.90;;;;;;6251940;22;20391;-83
2023/12/27 12:51:19;;;;;;;9.07;2.30;;;13.60;99.90;;;;;;6250044;22;20407;-83